createdAt,value
2022-08-18T00:00:20.408Z,24.36
2022-08-18T00:02:51.020Z,24.36
2022-08-18T00:05:28.219Z,24.25
2022-08-18T00:07:57.676Z,24.28
2022-08-18T00:10:24.662Z,24.23
2022-08-18T00:12:51.226Z,24.11
2022-08-18T00:15:23.956Z,24.14
2022-08-18T00:17:50.872Z,24.12
2022-08-18T00:20:22.447Z,24.01
2022-08-18T00:22:50.039Z,24.07
2022-08-18T00:25:17.817Z,23.96
2022-08-18T00:27:44.471Z,23.96
2022-08-18T00:30:16.954Z,24.00
2022-08-18T00:32:47.708Z,23.83
2022-08-18T00:35:16.206Z,23.73
2022-08-18T00:37:43.135Z,23.67
2022-08-18T00:40:14.642Z,23.63
2022-08-18T00:42:48.092Z,23.61
2022-08-18T00:45:25.342Z,23.66
2022-08-18T00:47:52.729Z,23.65
2022-08-18T00:50:26.856Z,23.62
2022-08-18T00:52:58.522Z,23.59
2022-08-18T00:55:26.308Z,23.50
2022-08-18T00:58:01.173Z,23.49
2022-08-18T01:00:27.767Z,23.46
2022-08-18T01:02:58.917Z,23.47
2022-08-18T01:05:41.109Z,23.42
2022-08-18T01:08:11.743Z,23.31
2022-08-18T01:10:39.502Z,23.28
2022-08-18T01:13:06.895Z,23.18
2022-08-18T01:15:35.015Z,23.25
2022-08-18T01:18:28.867Z,23.28
2022-08-18T01:21:37.014Z,23.22
2022-08-18T01:24:07.047Z,23.11
2022-08-18T01:26:37.508Z,23.09
2022-08-18T01:29:11.796Z,23.03
2022-08-18T01:31:55.448Z,23.00
2022-08-18T01:34:24.852Z,22.90
2022-08-18T01:36:52.872Z,23.06
2022-08-18T01:40:59.960Z,22.98
2022-08-18T01:42:06.753Z,22.96
2022-08-18T01:44:33.705Z,22.81
2022-08-18T01:47:00.228Z,22.67
2022-08-18T01:49:28.819Z,22.66
2022-08-18T01:51:55.727Z,22.77
2022-08-18T01:54:22.820Z,22.85
2022-08-18T01:56:49.386Z,22.86
2022-08-18T01:59:16.243Z,22.86
2022-08-18T02:01:48.177Z,22.84
2022-08-18T02:04:34.470Z,22.79
2022-08-18T02:07:05.346Z,22.72
2022-08-18T02:09:33.518Z,22.67
2022-08-18T02:12:01.436Z,22.59
2022-08-18T02:14:27.878Z,22.57
2022-08-18T02:17:01.790Z,22.52
2022-08-18T02:19:40.855Z,22.45
2022-08-18T02:22:09.292Z,22.32
2022-08-18T02:24:36.553Z,22.22
2022-08-18T02:27:03.176Z,22.37
2022-08-18T02:29:29.750Z,22.37
2022-08-18T02:31:56.306Z,22.34
2022-08-18T02:34:23.380Z,22.10
2022-08-18T02:36:49.999Z,22.22
2022-08-18T02:39:16.426Z,22.24
2022-08-18T02:41:44.180Z,22.24
2022-08-18T02:44:11.607Z,22.22
2022-08-18T02:46:38.180Z,22.16
2022-08-18T02:49:05.995Z,22.11
2022-08-18T02:51:32.420Z,22.12
2022-08-18T02:53:59.325Z,22.04
2022-08-18T02:56:40.019Z,22.07
2022-08-18T02:59:11.783Z,21.99
2022-08-18T03:01:45.716Z,21.97
2022-08-18T03:04:15.876Z,21.85
2022-08-18T03:06:44.216Z,21.80
2022-08-18T03:09:11.661Z,21.84
2022-08-18T03:11:38.374Z,21.80
2022-08-18T03:14:05.816Z,21.73
2022-08-18T03:16:38.392Z,21.69
2022-08-18T03:19:04.899Z,21.70
2022-08-18T03:21:34.831Z,21.73
2022-08-18T03:24:02.821Z,21.67
2022-08-18T03:26:30.980Z,21.62
2022-08-18T03:28:59.871Z,21.54
2022-08-18T03:31:29.106Z,21.60
2022-08-18T03:33:59.410Z,21.53
2022-08-18T03:36:29.379Z,21.46
2022-08-18T03:38:56.973Z,21.42
2022-08-18T03:41:59.022Z,21.41
2022-08-18T03:44:15.346Z,21.39
2022-08-18T03:46:44.042Z,21.31
2022-08-18T03:49:11.273Z,21.27
2022-08-18T03:51:38.324Z,21.24
2022-08-18T03:54:05.810Z,21.24
2022-08-18T03:56:35.244Z,21.25
2022-08-18T03:59:10.064Z,21.20
2022-08-18T04:01:39.830Z,21.17
2022-08-18T04:04:09.887Z,21.17
2022-08-18T04:06:41.798Z,21.11
2022-08-18T04:09:11.425Z,21.05
2022-08-18T04:11:38.945Z,21.03
2022-08-18T04:14:06.186Z,21.03
2022-08-18T04:16:34.753Z,21.11
2022-08-18T04:19:03.486Z,21.10
2022-08-18T04:21:32.879Z,21.12
2022-08-18T04:24:05.198Z,21.12
2022-08-18T04:26:33.727Z,21.15
2022-08-18T04:29:03.606Z,21.16
2022-08-18T04:31:32.104Z,21.16
2022-08-18T04:34:00.033Z,21.19
2022-08-18T04:36:27.842Z,21.18
2022-08-18T04:38:56.324Z,21.19
2022-08-18T04:41:26.245Z,21.18
2022-08-18T04:44:01.135Z,21.22
2022-08-18T04:46:28.923Z,21.22
2022-08-18T04:48:59.135Z,21.24
2022-08-18T04:52:34.025Z,21.24
2022-08-18T04:54:16.066Z,21.25
2022-08-18T04:56:42.743Z,21.30
2022-08-18T04:59:14.102Z,21.37
2022-08-18T05:01:45.440Z,21.39
2022-08-18T05:04:13.584Z,21.40
2022-08-18T05:06:41.274Z,21.42
2022-08-18T05:09:09.963Z,21.37
2022-08-18T05:11:37.537Z,21.42
2022-08-18T05:14:07.116Z,21.53
2022-08-18T05:16:42.064Z,21.45
2022-08-18T05:19:21.940Z,21.43
2022-08-18T05:21:51.513Z,21.53
2022-08-18T05:24:20.335Z,21.65
2022-08-18T05:26:47.647Z,21.68
2022-08-18T05:29:17.828Z,21.73
2022-08-18T05:31:46.168Z,21.84
2022-08-18T05:34:12.614Z,21.88
2022-08-18T05:36:51.819Z,21.87
2022-08-18T05:39:18.189Z,21.77
2022-08-18T05:41:57.403Z,21.92
2022-08-18T05:44:30.160Z,22.06
2022-08-18T05:47:04.803Z,22.17
2022-08-18T05:49:31.444Z,22.23
2022-08-18T05:52:02.846Z,22.36
2022-08-18T05:55:05.662Z,22.42
2022-08-18T05:57:38.786Z,22.53
2022-08-18T06:00:09.345Z,22.63
2022-08-18T06:02:47.317Z,22.69
2022-08-18T06:05:40.879Z,22.66
2022-08-18T06:08:11.425Z,22.79
2022-08-18T06:10:42.380Z,22.94
2022-08-18T06:13:11.244Z,22.99
2022-08-18T06:15:59.010Z,23.15
2022-08-18T06:18:30.842Z,23.21
2022-08-18T06:21:25.499Z,23.16
2022-08-18T06:24:15.900Z,23.19
2022-08-18T06:27:08.514Z,23.20
2022-08-18T06:29:51.027Z,23.36
2022-08-18T06:32:22.461Z,23.45
2022-08-18T06:35:08.463Z,23.53
2022-08-18T06:38:04.315Z,23.49
2022-08-18T06:40:30.786Z,23.53
2022-08-18T06:42:59.744Z,23.61
2022-08-18T06:45:39.912Z,23.68
2022-08-18T06:48:15.518Z,23.76
2022-08-18T06:50:51.941Z,23.79
2022-08-18T06:53:28.128Z,23.84
2022-08-18T06:55:55.168Z,23.86
2022-08-18T06:58:27.620Z,23.87
2022-08-18T07:00:56.033Z,23.90
2022-08-18T07:03:45.808Z,23.92
2022-08-18T07:06:21.390Z,23.97
2022-08-18T07:08:51.006Z,24.03
2022-08-18T07:11:30.251Z,24.07
2022-08-18T07:14:16.479Z,24.20
2022-08-18T07:16:58.355Z,24.28
2022-08-18T07:19:29.334Z,24.38
2022-08-18T07:22:07.299Z,24.46
2022-08-18T07:24:44.093Z,24.48
2022-08-18T07:27:12.853Z,24.53
2022-08-18T07:30:01.868Z,24.56
2022-08-18T07:32:40.619Z,24.63
2022-08-18T07:35:09.140Z,24.67
2022-08-18T07:38:24.589Z,24.71
2022-08-18T07:40:58.734Z,24.76
2022-08-18T07:43:36.005Z,24.84
2022-08-18T07:46:21.489Z,24.85
2022-08-18T07:48:47.924Z,24.94
2022-08-18T07:51:36.884Z,25.09
2022-08-18T07:54:44.955Z,25.13
2022-08-18T07:57:20.636Z,25.15
2022-08-18T08:00:35.188Z,25.25
2022-08-18T08:03:32.093Z,25.33
2022-08-18T08:06:08.581Z,25.40
2022-08-18T08:09:02.884Z,25.52
2022-08-18T08:11:52.995Z,25.53
2022-08-18T08:14:39.796Z,25.59
2022-08-18T08:17:33.113Z,25.67
2022-08-18T08:20:01.194Z,25.67
2022-08-18T08:22:47.360Z,25.75
2022-08-18T08:25:45.013Z,25.77
2022-08-18T08:28:28.695Z,25.76
2022-08-18T08:31:33.488Z,25.81
2022-08-18T08:34:08.088Z,25.93
2022-08-18T08:36:40.071Z,26.02
2022-08-18T08:39:17.284Z,26.15
2022-08-18T08:41:51.177Z,26.21
2022-08-18T08:44:24.765Z,26.28
2022-08-18T08:47:07.737Z,26.38
2022-08-18T08:49:42.658Z,26.45
2022-08-18T08:52:19.080Z,26.51
2022-08-18T08:54:51.629Z,26.55
2022-08-18T08:57:18.983Z,26.65
2022-08-18T08:59:48.676Z,26.78
2022-08-18T09:05:21.622Z,26.95
2022-08-18T09:08:00.599Z,27.06
2022-08-18T09:10:45.037Z,26.95
2022-08-18T09:13:36.330Z,27.46
2022-08-18T09:16:27.644Z,27.48
2022-08-18T09:19:13.671Z,27.60
2022-08-18T09:21:46.876Z,28.00
2022-08-18T09:24:31.687Z,28.20
2022-08-18T09:27:15.807Z,28.44
2022-08-18T09:29:51.652Z,28.63
2022-08-18T09:32:22.864Z,28.93
2022-08-18T09:35:36.562Z,29.04
2022-08-18T09:38:32.875Z,29.12
2022-08-18T09:41:31.385Z,29.13
2022-08-18T09:44:21.299Z,29.30
2022-08-18T09:46:56.018Z,29.49
2022-08-18T09:49:24.849Z,29.69
2022-08-18T09:52:21.156Z,29.82
2022-08-18T09:54:56.880Z,29.91
2022-08-18T09:57:27.232Z,30.04
2022-08-18T09:59:57.275Z,30.12
2022-08-18T10:02:28.304Z,30.10
2022-08-18T10:05:20.261Z,30.28
2022-08-18T10:07:50.051Z,30.51
2022-08-18T10:11:02.430Z,30.66
2022-08-18T10:13:49.505Z,31.01
2022-08-18T10:16:19.268Z,30.73
2022-08-18T10:19:00.633Z,30.97
2022-08-18T10:21:49.628Z,30.96
2022-08-18T10:24:35.140Z,31.06
2022-08-18T10:27:13.274Z,31.50
2022-08-18T10:29:46.806Z,31.75
2022-08-18T10:32:14.052Z,31.80
2022-08-18T10:34:52.439Z,31.91
2022-08-18T10:37:49.156Z,31.97
2022-08-18T10:40:22.472Z,31.97
2022-08-18T10:46:25.018Z,31.80
2022-08-18T10:49:14.945Z,32.09
2022-08-18T10:52:08.683Z,32.38
2022-08-18T10:55:10.221Z,32.43
2022-08-18T10:57:58.053Z,32.65
2022-08-18T11:00:44.833Z,32.97
2022-08-18T11:03:50.627Z,33.26
2022-08-18T11:06:21.543Z,33.23
2022-08-18T11:08:55.400Z,33.27
2022-08-18T11:11:36.275Z,33.34
2022-08-18T11:14:20.066Z,33.24
2022-08-18T11:16:55.332Z,33.19
2022-08-18T11:19:22.763Z,33.30
2022-08-18T11:21:52.465Z,33.60
2022-08-18T11:24:26.021Z,33.67
2022-08-18T11:26:58.812Z,33.37
2022-08-18T11:29:29.585Z,33.77
2022-08-18T11:32:11.933Z,34.18
2022-08-18T11:37:51.488Z,34.37
2022-08-18T11:41:02.346Z,34.49
2022-08-18T11:43:10.450Z,34.36
2022-08-18T11:45:44.121Z,34.67
2022-08-18T11:48:32.175Z,34.86
2022-08-18T11:51:23.548Z,34.80
2022-08-18T11:54:00.122Z,35.24
2022-08-18T11:56:38.215Z,35.63
2022-08-18T11:59:52.733Z,35.72
2022-08-18T12:02:21.141Z,35.45
2022-08-18T12:04:52.771Z,35.22
2022-08-18T12:07:32.013Z,35.35
2022-08-18T12:10:19.314Z,35.55
2022-08-18T12:12:52.050Z,35.60
2022-08-18T12:15:23.827Z,35.88
2022-08-18T12:17:53.673Z,35.79
2022-08-18T12:20:21.676Z,35.64
2022-08-18T12:22:49.791Z,35.62
2022-08-18T12:25:25.430Z,35.73
2022-08-18T12:27:53.406Z,35.82
2022-08-18T12:30:20.035Z,35.91
2022-08-18T12:32:50.651Z,36.30
2022-08-18T12:35:22.668Z,36.10
2022-08-18T12:38:13.332Z,35.94
2022-08-18T12:40:37.009Z,35.95
2022-08-18T12:43:03.647Z,35.96
2022-08-18T12:45:32.584Z,35.79
2022-08-18T12:48:02.381Z,35.89
2022-08-18T12:50:33.448Z,35.99
2022-08-18T12:53:02.998Z,35.94
2022-08-18T12:55:35.304Z,35.58
2022-08-18T12:58:05.203Z,35.83
2022-08-18T13:00:32.691Z,35.83
2022-08-18T13:02:59.515Z,35.90
2022-08-18T13:05:27.506Z,35.87
2022-08-18T13:07:58.022Z,35.67
2022-08-18T13:10:43.012Z,35.88
2022-08-18T13:13:11.066Z,36.00
2022-08-18T13:15:37.613Z,35.74
2022-08-18T13:18:04.220Z,35.68
2022-08-18T13:20:30.651Z,35.97
2022-08-18T13:22:57.090Z,35.57
2022-08-18T13:25:28.775Z,36.03
2022-08-18T13:28:00.733Z,36.13
2022-08-18T13:30:30.932Z,35.61
2022-08-18T13:33:02.539Z,36.03
2022-08-18T13:35:37.907Z,36.28
2022-08-18T13:38:14.336Z,36.30
2022-08-18T13:40:45.451Z,36.60
2022-08-18T13:43:12.318Z,36.42
2022-08-18T13:45:42.707Z,36.34
2022-08-18T13:48:10.719Z,36.35
2022-08-18T13:50:40.266Z,36.27
2022-08-18T13:53:15.686Z,36.54
2022-08-18T13:55:42.149Z,36.62
2022-08-18T13:58:20.314Z,36.52
2022-08-18T14:00:52.192Z,36.77
2022-08-18T14:03:20.601Z,36.78
2022-08-18T14:06:01.578Z,36.79
2022-08-18T14:08:30.610Z,36.68
2022-08-18T14:11:00.762Z,36.64
2022-08-18T14:13:28.537Z,36.67
2022-08-18T14:15:56.694Z,36.91
2022-08-18T14:18:29.141Z,36.89
2022-08-18T14:21:16.943Z,36.83
2022-08-18T14:24:10.731Z,37.07
2022-08-18T14:26:51.028Z,37.04
2022-08-18T14:29:46.392Z,37.08
2022-08-18T14:32:06.236Z,36.85
2022-08-18T14:34:32.781Z,36.48
2022-08-18T14:36:59.362Z,36.62
2022-08-18T14:39:25.871Z,36.94
2022-08-18T14:41:56.197Z,36.70
2022-08-18T14:44:24.308Z,36.24
2022-08-18T14:46:54.213Z,36.33
2022-08-18T14:49:28.553Z,35.90
2022-08-18T14:51:57.811Z,35.65
2022-08-18T14:54:28.391Z,36.33
2022-08-18T14:56:55.422Z,36.10
2022-08-18T14:59:23.265Z,36.07
2022-08-18T15:01:51.440Z,35.69
2022-08-18T15:04:18.936Z,36.10
2022-08-18T15:06:56.149Z,36.00
2022-08-18T15:09:26.857Z,35.90
2022-08-18T15:11:55.909Z,35.85
2022-08-18T15:14:32.607Z,35.60
2022-08-18T15:17:01.777Z,35.20
2022-08-18T15:19:58.491Z,35.00
2022-08-18T15:22:33.475Z,34.72
2022-08-18T15:25:18.595Z,34.76
2022-08-18T15:27:47.753Z,34.88
2022-08-18T15:30:19.842Z,34.70
2022-08-18T15:32:49.637Z,34.85
2022-08-18T15:35:17.818Z,34.85
2022-08-18T15:37:47.614Z,34.72
2022-08-18T15:40:31.289Z,34.57
2022-08-18T15:43:09.870Z,34.82
2022-08-18T15:45:43.442Z,34.68
2022-08-18T15:48:24.310Z,34.41
2022-08-18T15:50:51.481Z,34.57
2022-08-18T15:53:20.913Z,34.47
2022-08-18T15:55:50.145Z,34.56
2022-08-18T15:58:18.299Z,34.37
2022-08-18T16:00:49.246Z,34.34
2022-08-18T16:03:17.575Z,34.19
2022-08-18T16:05:54.322Z,34.19
2022-08-18T16:08:23.523Z,34.21
2022-08-18T16:10:50.265Z,34.14
2022-08-18T16:13:17.073Z,33.94
2022-08-18T16:15:46.905Z,33.77
2022-08-18T16:18:14.578Z,33.63
2022-08-18T16:20:41.499Z,33.72
2022-08-18T16:23:08.005Z,33.80
2022-08-18T16:25:37.930Z,33.85
2022-08-18T16:28:04.428Z,33.83
2022-08-18T16:30:32.595Z,33.74
2022-08-18T16:33:03.890Z,33.63
2022-08-18T16:35:31.615Z,33.63
2022-08-18T16:38:04.542Z,33.59
2022-08-18T16:40:31.107Z,33.60
2022-08-18T16:43:00.025Z,33.55
2022-08-18T16:45:27.680Z,33.40
2022-08-18T16:47:54.654Z,33.27
2022-08-18T16:50:23.450Z,33.15
2022-08-18T16:52:50.094Z,33.13
2022-08-18T16:55:16.687Z,32.96
2022-08-18T16:58:02.443Z,32.82
2022-08-18T17:00:54.471Z,32.40
2022-08-18T17:03:40.341Z,31.69
2022-08-18T17:06:10.864Z,30.84
2022-08-18T17:08:38.466Z,30.56
2022-08-18T17:11:08.486Z,30.37
2022-08-18T17:13:35.816Z,30.02
2022-08-18T17:16:02.539Z,30.05
2022-08-18T17:18:30.389Z,29.92
2022-08-18T17:21:01.384Z,30.01
2022-08-18T17:23:27.820Z,29.86
2022-08-18T17:25:55.695Z,29.72
2022-08-18T17:28:29.846Z,29.64
2022-08-18T17:30:58.666Z,29.28
2022-08-18T17:33:28.790Z,29.13
2022-08-18T17:36:00.451Z,28.94
2022-08-18T17:38:34.069Z,28.69
2022-08-18T17:41:02.346Z,28.61
2022-08-18T17:46:27.285Z,28.16
2022-08-18T17:48:59.752Z,28.17
2022-08-18T17:51:34.796Z,28.15
2022-08-18T17:54:21.985Z,27.70
2022-08-18T17:56:57.763Z,27.66
2022-08-18T17:59:46.123Z,27.59
2022-08-18T18:02:29.863Z,27.51
2022-08-18T18:05:00.180Z,27.46
2022-08-18T18:07:26.558Z,27.42
2022-08-18T18:10:04.562Z,27.19
2022-08-18T18:12:35.648Z,27.16
2022-08-18T18:15:05.510Z,27.18
2022-08-18T18:17:37.658Z,27.25
2022-08-18T18:20:15.597Z,27.25
2022-08-18T18:22:45.023Z,27.28
2022-08-18T18:25:13.082Z,27.36
2022-08-18T18:27:48.477Z,27.17
2022-08-18T18:30:19.346Z,27.14
2022-08-18T18:33:02.682Z,27.08
2022-08-18T18:35:34.153Z,27.14
2022-08-18T18:38:25.787Z,27.00
2022-08-18T18:41:02.006Z,27.13
2022-08-18T18:43:39.409Z,27.17
2022-08-18T18:46:18.891Z,27.13
2022-08-18T18:49:18.865Z,26.81
2022-08-18T18:52:19.183Z,26.78
2022-08-18T18:55:05.747Z,26.40
2022-08-18T18:57:50.115Z,26.62
2022-08-18T19:00:38.386Z,26.87
2022-08-18T19:03:23.318Z,26.88
2022-08-18T19:06:17.977Z,26.96
2022-08-18T19:09:00.951Z,26.79
2022-08-18T19:11:38.007Z,26.64
2022-08-18T19:14:16.531Z,26.37
2022-08-18T19:16:49.368Z,26.24
2022-08-18T19:19:37.985Z,26.33
2022-08-18T19:22:27.257Z,26.19
2022-08-18T19:25:04.871Z,26.14
2022-08-18T19:27:46.657Z,25.96
2022-08-18T19:30:15.968Z,25.83
2022-08-18T19:32:46.607Z,25.91
2022-08-18T19:35:19.657Z,25.89
2022-08-18T19:38:22.883Z,25.77
2022-08-18T19:40:54.385Z,25.77
2022-08-18T19:43:31.011Z,25.85
2022-08-18T19:46:38.187Z,25.83
2022-08-18T19:49:20.874Z,25.75
2022-08-18T19:51:52.250Z,25.53
2022-08-18T19:54:56.478Z,25.54
2022-08-18T19:57:58.936Z,25.43
2022-08-18T20:00:51.347Z,25.26
2022-08-18T20:03:33.703Z,25.39
2022-08-18T20:06:33.947Z,25.35
2022-08-18T20:09:29.713Z,25.41
2022-08-18T20:12:22.006Z,25.40
2022-08-18T20:15:21.624Z,25.37
2022-08-18T20:17:54.194Z,25.35
2022-08-18T20:20:29.983Z,25.47
2022-08-18T20:22:58.501Z,25.46
2022-08-18T20:25:24.990Z,25.32
2022-08-18T20:28:12.695Z,25.22
2022-08-18T20:31:01.773Z,25.25
2022-08-18T20:33:30.616Z,25.31
2022-08-18T20:36:14.201Z,25.25
2022-08-18T20:38:47.374Z,25.27
2022-08-18T20:41:23.048Z,25.21
2022-08-18T20:44:28.586Z,25.12
2022-08-18T20:47:25.379Z,25.02
2022-08-18T20:50:40.160Z,24.80
2022-08-18T20:53:09.327Z,24.67
2022-08-18T20:56:12.963Z,24.58
2022-08-18T20:59:08.626Z,24.56
2022-08-18T21:01:36.864Z,24.55
2022-08-18T21:04:05.134Z,24.69
2022-08-18T21:06:36.241Z,24.67
2022-08-18T21:09:03.746Z,24.69
2022-08-18T21:11:45.331Z,24.70
2022-08-18T21:14:12.966Z,24.66
2022-08-18T21:16:43.045Z,24.59
2022-08-18T21:19:24.994Z,24.42
2022-08-18T21:22:00.842Z,24.26
2022-08-18T21:24:37.354Z,24.19
2022-08-18T21:27:10.335Z,24.12
2022-08-18T21:29:46.803Z,24.08
2022-08-18T21:32:31.297Z,24.17
2022-08-18T21:35:05.835Z,24.27
2022-08-18T21:37:34.467Z,24.33
2022-08-18T21:40:05.085Z,24.34
2022-08-18T21:42:34.235Z,24.23
2022-08-18T21:45:01.199Z,24.38
2022-08-18T21:47:31.201Z,24.44
2022-08-18T21:50:11.076Z,24.40
2022-08-18T21:52:51.512Z,24.28
2022-08-18T21:55:27.644Z,24.21
2022-08-18T21:58:14.296Z,24.04
2022-08-18T22:00:43.971Z,23.97
2022-08-18T22:03:23.967Z,23.92
2022-08-18T22:06:17.051Z,23.84
2022-08-18T22:08:50.048Z,23.95
2022-08-18T22:12:01.229Z,23.96
2022-08-18T22:14:54.742Z,23.88
2022-08-18T22:17:34.975Z,24.01
2022-08-18T22:20:38.937Z,24.08
2022-08-18T22:23:41.700Z,23.93
2022-08-18T22:26:16.995Z,23.83
2022-08-18T22:28:59.782Z,23.86
2022-08-18T22:31:30.752Z,23.84
2022-08-18T22:34:01.275Z,23.79
2022-08-18T22:36:32.192Z,23.72
2022-08-18T22:39:00.057Z,23.70
2022-08-18T22:41:26.698Z,23.78
2022-08-18T22:43:55.217Z,23.79
2022-08-18T22:46:24.338Z,23.78
2022-08-18T22:48:52.175Z,23.81
2022-08-18T22:51:23.577Z,23.94
2022-08-18T22:53:50.455Z,23.91
2022-08-18T22:56:30.772Z,23.80
2022-08-18T22:59:16.015Z,23.54
2022-08-18T23:01:46.776Z,23.49
2022-08-18T23:04:15.771Z,23.48
2022-08-18T23:06:48.584Z,23.44
2022-08-18T23:09:15.028Z,23.31
2022-08-18T23:11:41.557Z,23.31
2022-08-18T23:14:08.023Z,23.30
2022-08-18T23:16:34.474Z,23.30
2022-08-18T23:19:03.759Z,23.29
2022-08-18T23:21:34.556Z,23.27
2022-08-18T23:24:05.366Z,23.26
2022-08-18T23:26:31.951Z,23.17
2022-08-18T23:28:58.431Z,23.21
2022-08-18T23:31:24.857Z,23.22
2022-08-18T23:33:51.418Z,23.17
2022-08-18T23:36:18.001Z,23.18
2022-08-18T23:38:44.678Z,23.25
2022-08-18T23:41:12.745Z,23.04
2022-08-18T23:43:39.595Z,22.99
2022-08-18T23:46:15.198Z,22.95
2022-08-18T23:48:50.241Z,22.99
2022-08-18T23:51:44.289Z,23.03
2022-08-18T23:54:18.983Z,23.04
2022-08-18T23:56:46.286Z,22.95
2022-08-18T23:59:13.539Z,22.98
